sensor_id;sensor_type;location;lat;lon;timestamp;pressure;altitude;pressure_sealevel;temperature;humidity
51083;BME280;37131;42.694;23.350;2023-04-01T00:00:46;94604.88;;;10.53;66.01
51083;BME280;37131;42.694;23.350;2023-04-01T00:03:11;94604.72;;;10.26;66.84
51083;BME280;37131;42.694;23.350;2023-04-01T00:05:37;94605.78;;;9.96;68.61
51083;BME280;37131;42.694;23.350;2023-04-01T00:08:02;94606.72;;;9.44;70.66
51083;BME280;37131;42.694;23.350;2023-04-01T00:10:28;94608.91;;;9.36;71.40
51083;BME280;37131;42.694;23.350;2023-04-01T00:12:53;94616.78;;;9.12;72.70
51083;BME280;37131;42.694;23.350;2023-04-01T00:15:18;94616.50;;;9.25;72.18
51083;BME280;37131;42.694;23.350;2023-04-01T00:17:44;94614.44;;;9.39;71.38
51083;BME280;37131;42.694;23.350;2023-04-01T00:20:10;94612.75;;;9.45;71.19
51083;BME280;37131;42.694;23.350;2023-04-01T00:22:36;94624.19;;;9.32;72.29
51083;BME280;37131;42.694;23.350;2023-04-01T00:25:02;94620.91;;;9.65;71.47
51083;BME280;37131;42.694;23.350;2023-04-01T00:27:27;94616.63;;;9.59;71.29
51083;BME280;37131;42.694;23.350;2023-04-01T00:29:53;94603.19;;;9.51;71.49
51083;BME280;37131;42.694;23.350;2023-04-01T00:32:18;94601.94;;;9.82;70.55
51083;BME280;37131;42.694;23.350;2023-04-01T00:34:43;94611.97;;;10.07;69.61
51083;BME280;37131;42.694;23.350;2023-04-01T00:37:09;94604.47;;;10.11;68.46
51083;BME280;37131;42.694;23.350;2023-04-01T00:39:35;94598.06;;;10.18;69.10
51083;BME280;37131;42.694;23.350;2023-04-01T00:42:03;94592.56;;;10.32;67.82
51083;BME280;37131;42.694;23.350;2023-04-01T00:44:33;94576.69;;;10.16;68.84
51083;BME280;37131;42.694;23.350;2023-04-01T00:47:00;94576.69;;;10.50;67.05
51083;BME280;37131;42.694;23.350;2023-04-01T00:49:37;94578.44;;;10.45;66.75
51083;BME280;37131;42.694;23.350;2023-04-01T00:52:05;94574.34;;;10.32;66.91
51083;BME280;37131;42.694;23.350;2023-04-01T00:54:33;94569.34;;;10.13;68.09
51083;BME280;37131;42.694;23.350;2023-04-01T00:57:02;94565.31;;;10.23;67.99
51083;BME280;37131;42.694;23.350;2023-04-01T00:59:36;94563.75;;;10.22;67.45
51083;BME280;37131;42.694;23.350;2023-04-01T01:02:05;94554.59;;;10.36;67.66
51083;BME280;37131;42.694;23.350;2023-04-01T01:04:33;94550.50;;;10.40;67.16
51083;BME280;37131;42.694;23.350;2023-04-01T01:10:09;94542.38;;;10.37;68.04
51083;BME280;37131;42.694;23.350;2023-04-01T01:15:26;94525.41;;;10.56;66.64
51083;BME280;37131;42.694;23.350;2023-04-01T01:24:25;94525.16;;;10.35;67.87
51083;BME280;37131;42.694;23.350;2023-04-01T01:27:03;94517.63;;;10.39;67.98
51083;BME280;37131;42.694;23.350;2023-04-01T01:35:27;94506.53;;;10.10;69.34
51083;BME280;37131;42.694;23.350;2023-04-01T01:37:59;94507.22;;;10.22;69.15
51083;BME280;37131;42.694;23.350;2023-04-01T01:40:27;94500.44;;;10.38;68.04
51083;BME280;37131;42.694;23.350;2023-04-01T01:42:59;94498.22;;;10.47;67.65
51083;BME280;37131;42.694;23.350;2023-04-01T01:45:26;94507.78;;;10.63;64.94
51083;BME280;37131;42.694;23.350;2023-04-01T01:47:53;94504.94;;;10.65;64.04
51083;BME280;37131;42.694;23.350;2023-04-01T01:50:21;94500.34;;;10.72;64.35
51083;BME280;37131;42.694;23.350;2023-04-01T01:52:47;94491.09;;;10.86;65.05
51083;BME280;37131;42.694;23.350;2023-04-01T01:55:33;94489.09;;;10.94;63.70
51083;BME280;37131;42.694;23.350;2023-04-01T01:58:04;94485.06;;;10.81;64.72
51083;BME280;37131;42.694;23.350;2023-04-01T02:00:31;94482.09;;;10.99;63.90
51083;BME280;37131;42.694;23.350;2023-04-01T02:02:58;94480.59;;;11.03;62.18
51083;BME280;37131;42.694;23.350;2023-04-01T02:05:26;94489.94;;;10.99;63.73
51083;BME280;37131;42.694;23.350;2023-04-01T02:08:10;94491.22;;;11.24;62.27
51083;BME280;37131;42.694;23.350;2023-04-01T02:10:40;94485.28;;;11.01;64.87
51083;BME280;37131;42.694;23.350;2023-04-01T02:13:17;94479.09;;;10.85;64.79
51083;BME280;37131;42.694;23.350;2023-04-01T02:15:47;94474.75;;;10.91;64.47
51083;BME280;37131;42.694;23.350;2023-04-01T02:18:14;94471.53;;;10.84;64.80
51083;BME280;37131;42.694;23.350;2023-04-01T02:20:41;94465.56;;;10.88;65.71
51083;BME280;37131;42.694;23.350;2023-04-01T02:23:08;94461.69;;;10.91;65.25
51083;BME280;37131;42.694;23.350;2023-04-01T02:25:36;94457.91;;;11.04;64.10
51083;BME280;37131;42.694;23.350;2023-04-01T02:28:05;94463.81;;;11.21;62.93
51083;BME280;37131;42.694;23.350;2023-04-01T02:30:34;94472.94;;;10.97;63.47
51083;BME280;37131;42.694;23.350;2023-04-01T02:33:00;94465.44;;;11.00;63.76
51083;BME280;37131;42.694;23.350;2023-04-01T02:35:26;94469.91;;;11.05;64.36
51083;BME280;37131;42.694;23.350;2023-04-01T02:37:53;94474.88;;;11.06;64.82
51083;BME280;37131;42.694;23.350;2023-04-01T02:40:19;94471.63;;;11.21;62.61
51083;BME280;37131;42.694;23.350;2023-04-01T02:42:44;94469.94;;;10.83;63.33
51083;BME280;37131;42.694;23.350;2023-04-01T02:45:11;94489.06;;;10.66;65.39
51083;BME280;37131;42.694;23.350;2023-04-01T02:47:37;94494.53;;;10.09;66.88
51083;BME280;37131;42.694;23.350;2023-04-01T02:50:02;94491.88;;;9.87;68.04
51083;BME280;37131;42.694;23.350;2023-04-01T02:52:28;94505.09;;;10.19;66.86
51083;BME280;37131;42.694;23.350;2023-04-01T02:54:55;94491.66;;;10.27;67.18
51083;BME280;37131;42.694;23.350;2023-04-01T02:57:21;94510.63;;;9.38;70.26
51083;BME280;37131;42.694;23.350;2023-04-01T02:59:47;94513.81;;;9.28;71.04
51083;BME280;37131;42.694;23.350;2023-04-01T03:02:13;94510.88;;;9.53;70.38
51083;BME280;37131;42.694;23.350;2023-04-01T03:04:39;94527.16;;;9.77;68.25
51083;BME280;37131;42.694;23.350;2023-04-01T03:07:04;94517.75;;;9.76;67.54
51083;BME280;37131;42.694;23.350;2023-04-01T03:09:29;94524.00;;;9.29;70.17
51083;BME280;37131;42.694;23.350;2023-04-01T03:11:55;94507.59;;;9.29;70.00
51083;BME280;37131;42.694;23.350;2023-04-01T03:14:20;94495.38;;;9.29;69.97
51083;BME280;37131;42.694;23.350;2023-04-01T03:16:46;94511.81;;;9.64;68.61
51083;BME280;37131;42.694;23.350;2023-04-01T03:19:11;94517.28;;;9.79;68.02
51083;BME280;37131;42.694;23.350;2023-04-01T03:21:37;94516.50;;;9.79;68.13
51083;BME280;37131;42.694;23.350;2023-04-01T03:24:02;94521.94;;;9.77;68.97
51083;BME280;37131;42.694;23.350;2023-04-01T03:26:28;94516.41;;;9.91;68.56
51083;BME280;37131;42.694;23.350;2023-04-01T03:28:53;94522.22;;;9.98;67.44
51083;BME280;37131;42.694;23.350;2023-04-01T03:31:19;94531.38;;;10.17;66.86
51083;BME280;37131;42.694;23.350;2023-04-01T03:33:45;94520.25;;;10.05;67.72
51083;BME280;37131;42.694;23.350;2023-04-01T03:36:10;94511.19;;;10.08;67.09
51083;BME280;37131;42.694;23.350;2023-04-01T03:38:38;94522.13;;;10.27;68.21
51083;BME280;37131;42.694;23.350;2023-04-01T03:41:04;94508.31;;;10.43;68.53
51083;BME280;37131;42.694;23.350;2023-04-01T03:43:29;94511.66;;;10.05;70.13
51083;BME280;37131;42.694;23.350;2023-04-01T03:45:54;94502.63;;;10.29;70.08
51083;BME280;37131;42.694;23.350;2023-04-01T03:48:22;94486.53;;;10.32;71.16
51083;BME280;37131;42.694;23.350;2023-04-01T03:50:47;94478.63;;;10.27;70.77
51083;BME280;37131;42.694;23.350;2023-04-01T03:53:13;94455.94;;;10.06;73.49
51083;BME280;37131;42.694;23.350;2023-04-01T03:55:38;94442.75;;;10.12;71.52
51083;BME280;37131;42.694;23.350;2023-04-01T03:58:05;94437.25;;;10.09;71.30
51083;BME280;37131;42.694;23.350;2023-04-01T04:00:31;94427.59;;;10.48;70.65
51083;BME280;37131;42.694;23.350;2023-04-01T04:02:57;94418.19;;;10.69;69.23
51083;BME280;37131;42.694;23.350;2023-04-01T04:05:23;94414.22;;;10.67;68.83
51083;BME280;37131;42.694;23.350;2023-04-01T04:07:50;94407.34;;;10.83;68.02
51083;BME280;37131;42.694;23.350;2023-04-01T04:10:16;94406.06;;;10.36;68.69
51083;BME280;37131;42.694;23.350;2023-04-01T04:12:41;94399.97;;;10.08;70.54
51083;BME280;37131;42.694;23.350;2023-04-01T04:15:07;94405.25;;;10.13;70.63
51083;BME280;37131;42.694;23.350;2023-04-01T04:17:33;94393.63;;;10.65;66.86
51083;BME280;37131;42.694;23.350;2023-04-01T04:19:58;94382.41;;;10.21;69.15
51083;BME280;37131;42.694;23.350;2023-04-01T04:22:24;94393.88;;;10.19;68.59
51083;BME280;37131;42.694;23.350;2023-04-01T04:24:49;94327.16;;;9.96;67.82
51083;BME280;37131;42.694;23.350;2023-04-01T04:27:15;94384.03;;;10.44;66.77
51083;BME280;37131;42.694;23.350;2023-04-01T04:29:40;94368.41;;;10.27;66.98
51083;BME280;37131;42.694;23.350;2023-04-01T04:32:05;94366.03;;;9.25;71.32
51083;BME280;37131;42.694;23.350;2023-04-01T04:34:31;94366.78;;;9.59;71.79
51083;BME280;37131;42.694;23.350;2023-04-01T04:36:56;94375.31;;;9.04;73.95
51083;BME280;37131;42.694;23.350;2023-04-01T04:39:21;94365.41;;;9.01;74.89
51083;BME280;37131;42.694;23.350;2023-04-01T04:41:47;94373.84;;;9.25;74.98
51083;BME280;37131;42.694;23.350;2023-04-01T04:44:12;94359.34;;;9.85;72.11
51083;BME280;37131;42.694;23.350;2023-04-01T04:46:37;94352.66;;;10.16;70.12
51083;BME280;37131;42.694;23.350;2023-04-01T04:49:04;94351.53;;;10.29;70.08
51083;BME280;37131;42.694;23.350;2023-04-01T04:51:29;94353.28;;;10.46;67.46
51083;BME280;37131;42.694;23.350;2023-04-01T04:53:54;94345.16;;;10.20;67.46
51083;BME280;37131;42.694;23.350;2023-04-01T04:56:20;94336.56;;;10.19;66.81
51083;BME280;37131;42.694;23.350;2023-04-01T04:58:46;94335.63;;;10.53;66.38
51083;BME280;37131;42.694;23.350;2023-04-01T05:01:13;94340.06;;;10.80;65.27
51083;BME280;37131;42.694;23.350;2023-04-01T05:03:38;94331.47;;;10.79;64.91
51083;BME280;37131;42.694;23.350;2023-04-01T05:06:04;94333.56;;;10.82;66.17
51083;BME280;37131;42.694;23.350;2023-04-01T05:08:30;94333.09;;;10.91;65.65
51083;BME280;37131;42.694;23.350;2023-04-01T05:10:55;94332.31;;;11.22;63.14
51083;BME280;37131;42.694;23.350;2023-04-01T05:13:20;94310.25;;;11.40;60.99
51083;BME280;37131;42.694;23.350;2023-04-01T05:15:46;94306.19;;;11.17;62.76
51083;BME280;37131;42.694;23.350;2023-04-01T05:18:11;94302.06;;;10.89;65.27
51083;BME280;37131;42.694;23.350;2023-04-01T05:20:36;94298.59;;;11.16;63.61
51083;BME280;37131;42.694;23.350;2023-04-01T05:23:01;94302.28;;;11.20;62.77
51083;BME280;37131;42.694;23.350;2023-04-01T05:25:27;94294.41;;;11.52;61.04
51083;BME280;37131;42.694;23.350;2023-04-01T05:27:52;94294.63;;;11.03;63.52
51083;BME280;37131;42.694;23.350;2023-04-01T05:30:18;94282.25;;;11.26;63.34
51083;BME280;37131;42.694;23.350;2023-04-01T05:32:43;94290.38;;;11.34;62.92
51083;BME280;37131;42.694;23.350;2023-04-01T05:35:08;94283.91;;;11.42;62.52
51083;BME280;37131;42.694;23.350;2023-04-01T05:37:34;94287.94;;;11.65;61.91
51083;BME280;37131;42.694;23.350;2023-04-01T05:40:00;94297.88;;;11.68;62.02
51083;BME280;37131;42.694;23.350;2023-04-01T05:42:25;94294.09;;;11.97;58.93
51083;BME280;37131;42.694;23.350;2023-04-01T05:44:50;94305.47;;;11.70;59.55
51083;BME280;37131;42.694;23.350;2023-04-01T05:47:16;94294.31;;;11.90;59.85
51083;BME280;37131;42.694;23.350;2023-04-01T05:49:41;94284.72;;;12.01;60.19
51083;BME280;37131;42.694;23.350;2023-04-01T05:52:06;94289.19;;;12.10;59.84
51083;BME280;37131;42.694;23.350;2023-04-01T05:54:31;94270.69;;;12.43;57.20
51083;BME280;37131;42.694;23.350;2023-04-01T05:56:57;94270.72;;;12.58;54.99
51083;BME280;37131;42.694;23.350;2023-04-01T05:59:22;94269.50;;;11.87;56.39
51083;BME280;37131;42.694;23.350;2023-04-01T06:01:47;94273.25;;;12.02;56.02
51083;BME280;37131;42.694;23.350;2023-04-01T06:04:16;94276.16;;;12.16;57.12
51083;BME280;37131;42.694;23.350;2023-04-01T06:06:41;94256.34;;;12.40;56.03
51083;BME280;37131;42.694;23.350;2023-04-01T06:09:10;94274.50;;;11.94;56.41
51083;BME280;37131;42.694;23.350;2023-04-01T06:19:40;94273.63;;;12.57;54.35
51083;BME280;37131;42.694;23.350;2023-04-01T06:22:10;94268.59;;;12.29;54.90
51083;BME280;37131;42.694;23.350;2023-04-01T06:27:21;94275.63;;;11.55;57.63
51083;BME280;37131;42.694;23.350;2023-04-01T06:40:24;94262.63;;;12.70;56.31
51083;BME280;37131;42.694;23.350;2023-04-01T06:45:30;94243.28;;;12.40;55.88
51083;BME280;37131;42.694;23.350;2023-04-01T06:48:19;94239.59;;;12.36;57.08
51083;BME280;37131;42.694;23.350;2023-04-01T06:56:20;94218.16;;;13.01;55.77
51083;BME280;37131;42.694;23.350;2023-04-01T06:58:49;94210.84;;;12.52;56.73
51083;BME280;37131;42.694;23.350;2023-04-01T07:01:20;94214.00;;;12.64;56.83
51083;BME280;37131;42.694;23.350;2023-04-01T07:06:14;94217.13;;;12.92;56.75
51083;BME280;37131;42.694;23.350;2023-04-01T07:08:41;94220.44;;;13.28;55.63
51083;BME280;37131;42.694;23.350;2023-04-01T07:11:11;94227.38;;;13.74;54.48
51083;BME280;37131;42.694;23.350;2023-04-01T07:13:51;94214.19;;;13.95;53.93
51083;BME280;37131;42.694;23.350;2023-04-01T07:21:27;94203.81;;;14.24;53.69
51083;BME280;37131;42.694;23.350;2023-04-01T07:23:59;94204.56;;;14.30;54.08
51083;BME280;37131;42.694;23.350;2023-04-01T07:26:26;94206.25;;;14.10;55.50
51083;BME280;37131;42.694;23.350;2023-04-01T07:28:52;94186.63;;;14.42;54.17
51083;BME280;37131;42.694;23.350;2023-04-01T07:34:17;94201.97;;;14.99;53.03
51083;BME280;37131;42.694;23.350;2023-04-01T07:37:10;94202.63;;;15.09;51.11
51083;BME280;37131;42.694;23.350;2023-04-01T07:42:20;94197.28;;;14.90;51.75
51083;BME280;37131;42.694;23.350;2023-04-01T07:54:44;94189.66;;;15.91;47.63
51083;BME280;37131;42.694;23.350;2023-04-01T08:05:17;94162.91;;;15.40;49.04
51083;BME280;37131;42.694;23.350;2023-04-01T08:10:12;94173.50;;;15.54;48.65
51083;BME280;37131;42.694;23.350;2023-04-01T08:17:54;94159.03;;;15.14;50.13
51083;BME280;37131;42.694;23.350;2023-04-01T08:22:51;94136.59;;;15.21;49.71
51083;BME280;37131;42.694;23.350;2023-04-01T08:25:19;94140.69;;;14.84;51.96
51083;BME280;37131;42.694;23.350;2023-04-01T08:27:49;94142.47;;;15.13;50.64
51083;BME280;37131;42.694;23.350;2023-04-01T08:32:58;94133.09;;;15.07;50.03
51083;BME280;37131;42.694;23.350;2023-04-01T08:35:29;94121.66;;;14.98;51.58
51083;BME280;37131;42.694;23.350;2023-04-01T08:37:56;94108.34;;;15.37;51.44
51083;BME280;37131;42.694;23.350;2023-04-01T08:56:02;94060.44;;;15.02;48.49
51083;BME280;37131;42.694;23.350;2023-04-01T09:00:57;94066.75;;;15.44;46.63
51083;BME280;37131;42.694;23.350;2023-04-01T09:16:41;94074.56;;;16.07;43.26
51083;BME280;37131;42.694;23.350;2023-04-01T09:21:40;94065.06;;;16.25;42.90
51083;BME280;37131;42.694;23.350;2023-04-01T09:29:28;94058.00;;;16.06;41.86
51083;BME280;37131;42.694;23.350;2023-04-01T09:42:27;94032.09;;;16.60;41.51
51083;BME280;37131;42.694;23.350;2023-04-01T09:45:01;94029.63;;;16.50;40.75
51083;BME280;37131;42.694;23.350;2023-04-01T09:52:38;94008.81;;;16.07;42.93
51083;BME280;37131;42.694;23.350;2023-04-01T10:18:40;93968.81;;;16.79;43.71
51083;BME280;37131;42.694;23.350;2023-04-01T10:39:22;93962.81;;;16.37;44.52
51083;BME280;37131;42.694;23.350;2023-04-01T10:47:19;93947.59;;;16.34;44.27
51083;BME280;37131;42.694;23.350;2023-04-01T11:00:14;93931.66;;;15.84;46.07
51083;BME280;37131;42.694;23.350;2023-04-01T11:03:26;93927.50;;;15.96;46.14
51083;BME280;37131;42.694;23.350;2023-04-01T11:21:37;93914.66;;;16.37;44.38
51083;BME280;37131;42.694;23.350;2023-04-01T11:24:16;93909.91;;;16.39;44.05
51083;BME280;37131;42.694;23.350;2023-04-01T11:26:55;93920.03;;;16.45;44.02
51083;BME280;37131;42.694;23.350;2023-04-01T11:29:29;93931.72;;;16.53;43.30
51083;BME280;37131;42.694;23.350;2023-04-01T11:42:15;94031.88;;;15.77;48.13
51083;BME280;37131;42.694;23.350;2023-04-01T11:44:49;94043.09;;;15.25;49.10
51083;BME280;37131;42.694;23.350;2023-04-01T11:47:27;94090.22;;;14.93;51.72
51083;BME280;37131;42.694;23.350;2023-04-01T12:03:42;94193.81;;;12.13;84.26
51083;BME280;37131;42.694;23.350;2023-04-01T12:13:59;94173.00;;;11.45;95.21
51083;BME280;37131;42.694;23.350;2023-04-01T12:19:32;94168.84;;;11.49;95.46
51083;BME280;37131;42.694;23.350;2023-04-01T12:24:47;94177.63;;;12.37;92.58
51083;BME280;37131;42.694;23.350;2023-04-01T12:49:56;94179.88;;;11.08;97.03
51083;BME280;37131;42.694;23.350;2023-04-01T12:55:19;94187.44;;;11.10;96.02
51083;BME280;37131;42.694;23.350;2023-04-01T12:58:01;94188.00;;;11.17;95.75
51083;BME280;37131;42.694;23.350;2023-04-01T13:03:16;94150.53;;;11.38;97.82
51083;BME280;37131;42.694;23.350;2023-04-01T13:08:35;94138.47;;;11.22;100.00
51083;BME280;37131;42.694;23.350;2023-04-01T13:11:49;94125.22;;;11.39;100.00
51083;BME280;37131;42.694;23.350;2023-04-01T13:14:11;94104.59;;;11.43;98.89
51083;BME280;37131;42.694;23.350;2023-04-01T13:16:53;94096.56;;;11.59;97.50
51083;BME280;37131;42.694;23.350;2023-04-01T13:19:21;94100.69;;;11.45;100.00
51083;BME280;37131;42.694;23.350;2023-04-01T13:22:23;94113.28;;;11.79;96.41
51083;BME280;37131;42.694;23.350;2023-04-01T13:25:42;94116.16;;;11.62;99.41
51083;BME280;37131;42.694;23.350;2023-04-01T13:32:50;94077.28;;;12.38;95.15
51083;BME280;37131;42.694;23.350;2023-04-01T13:37:57;94031.41;;;12.81;90.95
51083;BME280;37131;42.694;23.350;2023-04-01T13:40:28;94055.50;;;13.39;84.02
51083;BME280;37131;42.694;23.350;2023-04-01T13:43:07;94039.06;;;14.36;82.86
51083;BME280;37131;42.694;23.350;2023-04-01T13:45:42;94042.00;;;14.00;79.66
51083;BME280;37131;42.694;23.350;2023-04-01T13:48:29;94046.19;;;13.12;84.16
51083;BME280;37131;42.694;23.350;2023-04-01T13:56:22;94038.00;;;12.69;86.67
51083;BME280;37131;42.694;23.350;2023-04-01T14:04:03;94038.31;;;14.01;80.30
51083;BME280;37131;42.694;23.350;2023-04-01T14:12:09;94001.09;;;15.25;72.21
51083;BME280;37131;42.694;23.350;2023-04-01T14:14:56;94019.63;;;14.13;74.12
51083;BME280;37131;42.694;23.350;2023-04-01T14:17:31;94016.41;;;13.92;75.74
51083;BME280;37131;42.694;23.350;2023-04-01T14:22:40;94009.19;;;13.34;77.56
51083;BME280;37131;42.694;23.350;2023-04-01T14:30:27;93965.13;;;14.10;73.86
51083;BME280;37131;42.694;23.350;2023-04-01T14:43:27;93975.88;;;13.79;73.63
51083;BME280;37131;42.694;23.350;2023-04-01T14:48:53;93966.88;;;13.61;75.61
51083;BME280;37131;42.694;23.350;2023-04-01T14:51:34;93970.56;;;13.90;73.01
51083;BME280;37131;42.694;23.350;2023-04-01T14:54:04;93975.28;;;13.88;73.66
51083;BME280;37131;42.694;23.350;2023-04-01T14:59:09;93976.19;;;14.07;72.81
51083;BME280;37131;42.694;23.350;2023-04-01T15:01:41;93989.78;;;13.40;74.72
51083;BME280;37131;42.694;23.350;2023-04-01T15:11:37;93985.91;;;13.38;72.34
51083;BME280;37131;42.694;23.350;2023-04-01T15:14:30;93988.09;;;13.60;73.66
51083;BME280;37131;42.694;23.350;2023-04-01T15:25:15;94006.03;;;13.37;72.48
51083;BME280;37131;42.694;23.350;2023-04-01T15:27:53;94000.88;;;13.22;72.17
51083;BME280;37131;42.694;23.350;2023-04-01T15:30:37;94004.22;;;13.32;72.75
51083;BME280;37131;42.694;23.350;2023-04-01T15:55:53;94244.44;;;11.33;74.29
51083;BME280;37131;42.694;23.350;2023-04-01T16:03:52;94256.34;;;9.72;85.67
51083;BME280;37131;42.694;23.350;2023-04-01T16:13:52;94279.06;;;8.82;99.59
51083;BME280;37131;42.694;23.350;2023-04-01T16:19:30;94269.56;;;8.30;100.00
51083;BME280;37131;42.694;23.350;2023-04-01T16:21:35;94275.09;;;8.04;100.00
51083;BME280;37131;42.694;23.350;2023-04-01T16:29:03;94278.34;;;8.12;100.00
51083;BME280;37131;42.694;23.350;2023-04-01T16:31:37;94295.75;;;8.11;100.00
51083;BME280;37131;42.694;23.350;2023-04-01T16:34:06;94287.22;;;8.28;100.00
51083;BME280;37131;42.694;23.350;2023-04-01T16:36:44;94299.66;;;8.25;100.00
51083;BME280;37131;42.694;23.350;2023-04-01T16:47:17;94311.69;;;8.32;100.00
51083;BME280;37131;42.694;23.350;2023-04-01T16:55:14;94326.72;;;8.30;99.68
51083;BME280;37131;42.694;23.350;2023-04-01T17:00:25;94324.34;;;8.28;96.45
51083;BME280;37131;42.694;23.350;2023-04-01T17:05:16;94322.50;;;8.12;95.51
51083;BME280;37131;42.694;23.350;2023-04-01T17:07:49;94334.59;;;8.06;96.90
51083;BME280;37131;42.694;23.350;2023-04-01T17:10:34;94345.81;;;7.95;95.73
51083;BME280;37131;42.694;23.350;2023-04-01T17:15:42;94349.88;;;7.90;93.32
51083;BME280;37131;42.694;23.350;2023-04-01T17:18:20;94353.13;;;7.98;95.45
51083;BME280;37131;42.694;23.350;2023-04-01T17:20:50;94360.56;;;7.94;94.49
51083;BME280;37131;42.694;23.350;2023-04-01T17:23:30;94361.94;;;7.97;93.46
51083;BME280;37131;42.694;23.350;2023-04-01T17:38:23;94358.13;;;7.87;94.29
51083;BME280;37131;42.694;23.350;2023-04-01T17:46:04;94374.16;;;7.84;95.17
51083;BME280;37131;42.694;23.350;2023-04-01T17:56:21;94405.28;;;7.72;96.23
51083;BME280;37131;42.694;23.350;2023-04-01T17:58:58;94416.66;;;7.95;95.62
51083;BME280;37131;42.694;23.350;2023-04-01T18:08:57;94439.50;;;8.34;88.90
51083;BME280;37131;42.694;23.350;2023-04-01T18:30:17;94438.75;;;8.45;84.48
51083;BME280;37131;42.694;23.350;2023-04-01T18:32:51;94438.38;;;8.41;85.46
51083;BME280;37131;42.694;23.350;2023-04-01T18:35:34;94455.00;;;8.52;85.25
51083;BME280;37131;42.694;23.350;2023-04-01T18:45:47;94450.53;;;8.65;83.68
51083;BME280;37131;42.694;23.350;2023-04-01T18:48:37;94443.91;;;8.57;84.91
51083;BME280;37131;42.694;23.350;2023-04-01T18:51:10;94453.53;;;8.45;85.27
51083;BME280;37131;42.694;23.350;2023-04-01T18:56:11;94460.94;;;8.93;82.35
51083;BME280;37131;42.694;23.350;2023-04-01T18:59:12;94465.16;;;8.83;82.64
51083;BME280;37131;42.694;23.350;2023-04-01T19:01:46;94467.44;;;8.79;82.25
51083;BME280;37131;42.694;23.350;2023-04-01T19:06:59;94481.19;;;8.91;80.78
51083;BME280;37131;42.694;23.350;2023-04-01T19:09:33;94473.25;;;8.98;80.90
51083;BME280;37131;42.694;23.350;2023-04-01T19:14:52;94477.09;;;9.24;79.77
51083;BME280;37131;42.694;23.350;2023-04-01T19:20:18;94486.38;;;9.20;79.52
51083;BME280;37131;42.694;23.350;2023-04-01T19:28:30;94488.09;;;9.15;78.93
51083;BME280;37131;42.694;23.350;2023-04-01T19:41:47;94511.19;;;9.11;77.01
51083;BME280;37131;42.694;23.350;2023-04-01T19:52:14;94522.47;;;9.17;73.89
51083;BME280;37131;42.694;23.350;2023-04-01T19:59:41;94528.78;;;9.21;74.50
51083;BME280;37131;42.694;23.350;2023-04-01T20:04:44;94526.97;;;8.92;74.64
51083;BME280;37131;42.694;23.350;2023-04-01T20:12:09;94537.88;;;9.06;73.87
51083;BME280;37131;42.694;23.350;2023-04-01T20:17:24;94538.16;;;9.22;72.86
51083;BME280;37131;42.694;23.350;2023-04-01T20:31:18;94533.38;;;9.76;71.32
51083;BME280;37131;42.694;23.350;2023-04-01T20:52:37;94544.78;;;9.12;68.34
51083;BME280;37131;42.694;23.350;2023-04-01T21:14:01;94571.06;;;9.28;68.10
51083;BME280;37131;42.694;23.350;2023-04-01T21:27:19;94571.53;;;9.54;67.72
51083;BME280;37131;42.694;23.350;2023-04-01T21:38:42;94580.94;;;9.14;67.95
51083;BME280;37131;42.694;23.350;2023-04-01T22:01:49;94581.03;;;9.19;66.95
51083;BME280;37131;42.694;23.350;2023-04-01T22:04:34;94571.78;;;9.40;66.23
51083;BME280;37131;42.694;23.350;2023-04-01T22:07:10;94579.19;;;9.32;67.14
51083;BME280;37131;42.694;23.350;2023-04-01T22:09:45;94574.19;;;9.01;68.41
51083;BME280;37131;42.694;23.350;2023-04-01T22:22:21;94571.38;;;8.91;67.55
51083;BME280;37131;42.694;23.350;2023-04-01T22:27:34;94570.69;;;8.95;67.70
51083;BME280;37131;42.694;23.350;2023-04-01T22:31:02;94568.75;;;9.03;67.91
51083;BME280;37131;42.694;23.350;2023-04-01T22:45:26;94583.84;;;8.41;70.80
51083;BME280;37131;42.694;23.350;2023-04-01T22:53:01;94585.53;;;8.36;72.33
51083;BME280;37131;42.694;23.350;2023-04-01T22:55:31;94583.19;;;8.70;69.92
51083;BME280;37131;42.694;23.350;2023-04-01T22:58:08;94588.50;;;8.63;69.47
51083;BME280;37131;42.694;23.350;2023-04-01T23:03:04;94593.00;;;8.68;68.01
51083;BME280;37131;42.694;23.350;2023-04-01T23:05:31;94584.41;;;8.79;67.68
51083;BME280;37131;42.694;23.350;2023-04-01T23:13:01;94589.94;;;8.83;65.86
51083;BME280;37131;42.694;23.350;2023-04-01T23:15:29;94600.81;;;8.56;66.54
51083;BME280;37131;42.694;23.350;2023-04-01T23:25:36;94603.63;;;8.78;66.02
51083;BME280;37131;42.694;23.350;2023-04-01T23:33:13;94604.94;;;8.92;64.93
51083;BME280;37131;42.694;23.350;2023-04-01T23:35:48;94613.06;;;8.96;65.27
51083;BME280;37131;42.694;23.350;2023-04-01T23:38:14;94596.56;;;9.02;64.49
51083;BME280;37131;42.694;23.350;2023-04-01T23:40:40;94599.50;;;9.06;64.53
51083;BME280;37131;42.694;23.350;2023-04-01T23:43:17;94607.34;;;8.70;65.51
51083;BME280;37131;42.694;23.350;2023-04-01T23:45:46;94612.22;;;8.67;64.78
51083;BME280;37131;42.694;23.350;2023-04-01T23:48:12;94599.66;;;8.99;64.20
51083;BME280;37131;42.694;23.350;2023-04-01T23:50:40;94602.47;;;8.98;63.50
51083;BME280;37131;42.694;23.350;2023-04-01T23:53:11;94598.94;;;9.04;63.05
51083;BME280;37131;42.694;23.350;2023-04-01T23:55:37;94605.16;;;9.03;63.69
